sensor_id;sensor_type;location;lat;lon;timestamp;P1;durP1;ratioP1;P2;durP2;ratioP2
41711;SDS011;27399;51.516;13.670;2023-01-26T00:01:15;49.97;;;16.30;;
41711;SDS011;27399;51.516;13.670;2023-01-26T00:03:43;51.35;;;17.83;;
41711;SDS011;27399;51.516;13.670;2023-01-26T00:06:10;59.05;;;18.40;;
41711;SDS011;27399;51.516;13.670;2023-01-26T00:08:41;46.20;;;16.45;;
41711;SDS011;27399;51.516;13.670;2023-01-26T00:11:08;45.88;;;15.27;;
41711;SDS011;27399;51.516;13.670;2023-01-26T00:13:36;49.90;;;16.23;;
41711;SDS011;27399;51.516;13.670;2023-01-26T00:16:02;51.67;;;16.35;;
41711;SDS011;27399;51.516;13.670;2023-01-26T00:18:29;48.83;;;15.52;;
41711;SDS011;27399;51.516;13.670;2023-01-26T00:20:55;54.15;;;17.65;;
41711;SDS011;27399;51.516;13.670;2023-01-26T00:23:22;45.75;;;14.48;;
41711;SDS011;27399;51.516;13.670;2023-01-26T00:25:49;38.70;;;14.15;;
41711;SDS011;27399;51.516;13.670;2023-01-26T00:28:14;46.90;;;16.35;;
41711;SDS011;27399;51.516;13.670;2023-01-26T00:30:40;45.45;;;17.02;;
41711;SDS011;27399;51.516;13.670;2023-01-26T00:33:05;53.30;;;19.00;;
41711;SDS011;27399;51.516;13.670;2023-01-26T00:35:31;57.17;;;17.75;;
41711;SDS011;27399;51.516;13.670;2023-01-26T00:37:57;54.63;;;16.70;;
41711;SDS011;27399;51.516;13.670;2023-01-26T00:40:22;53.55;;;17.45;;
41711;SDS011;27399;51.516;13.670;2023-01-26T00:42:48;62.00;;;19.75;;
41711;SDS011;27399;51.516;13.670;2023-01-26T00:45:14;53.90;;;17.80;;
41711;SDS011;27399;51.516;13.670;2023-01-26T00:47:39;58.97;;;18.70;;
41711;SDS011;27399;51.516;13.670;2023-01-26T00:50:05;54.63;;;18.80;;
41711;SDS011;27399;51.516;13.670;2023-01-26T00:52:31;61.17;;;18.35;;
41711;SDS011;27399;51.516;13.670;2023-01-26T00:54:57;51.78;;;17.55;;
41711;SDS011;27399;51.516;13.670;2023-01-26T00:57:23;57.92;;;19.95;;
41711;SDS011;27399;51.516;13.670;2023-01-26T00:59:48;54.30;;;20.45;;
41711;SDS011;27399;51.516;13.670;2023-01-26T01:02:14;66.20;;;19.75;;
41711;SDS011;27399;51.516;13.670;2023-01-26T01:04:40;61.25;;;19.15;;
41711;SDS011;27399;51.516;13.670;2023-01-26T01:07:05;65.18;;;19.52;;
41711;SDS011;27399;51.516;13.670;2023-01-26T01:09:31;55.67;;;19.60;;
41711;SDS011;27399;51.516;13.670;2023-01-26T01:11:57;53.40;;;16.75;;
41711;SDS011;27399;51.516;13.670;2023-01-26T01:14:22;64.13;;;19.40;;
41711;SDS011;27399;51.516;13.670;2023-01-26T01:16:48;59.13;;;19.65;;
41711;SDS011;27399;51.516;13.670;2023-01-26T01:19:14;53.78;;;18.15;;
41711;SDS011;27399;51.516;13.670;2023-01-26T01:21:41;59.00;;;20.50;;
41711;SDS011;27399;51.516;13.670;2023-01-26T01:24:07;52.95;;;19.08;;
41711;SDS011;27399;51.516;13.670;2023-01-26T01:26:33;52.35;;;18.20;;
41711;SDS011;27399;51.516;13.670;2023-01-26T01:28:59;63.13;;;19.92;;
41711;SDS011;27399;51.516;13.670;2023-01-26T01:31:25;61.05;;;18.00;;
41711;SDS011;27399;51.516;13.670;2023-01-26T01:33:51;52.92;;;17.52;;
41711;SDS011;27399;51.516;13.670;2023-01-26T01:36:17;65.95;;;20.38;;
41711;SDS011;27399;51.516;13.670;2023-01-26T01:38:44;67.60;;;19.92;;
41711;SDS011;27399;51.516;13.670;2023-01-26T01:41:10;49.38;;;19.02;;
41711;SDS011;27399;51.516;13.670;2023-01-26T01:43:36;61.03;;;18.80;;
41711;SDS011;27399;51.516;13.670;2023-01-26T01:46:02;56.35;;;19.77;;
41711;SDS011;27399;51.516;13.670;2023-01-26T01:48:52;55.20;;;19.95;;
41711;SDS011;27399;51.516;13.670;2023-01-26T01:51:22;57.58;;;18.55;;
41711;SDS011;27399;51.516;13.670;2023-01-26T01:53:55;50.22;;;16.60;;
41711;SDS011;27399;51.516;13.670;2023-01-26T01:56:24;58.28;;;17.50;;
41711;SDS011;27399;51.516;13.670;2023-01-26T01:58:52;47.35;;;18.02;;
41711;SDS011;27399;51.516;13.670;2023-01-26T02:01:21;51.67;;;18.70;;
41711;SDS011;27399;51.516;13.670;2023-01-26T02:03:47;54.60;;;18.50;;
41711;SDS011;27399;51.516;13.670;2023-01-26T02:06:36;61.40;;;21.13;;
41711;SDS011;27399;51.516;13.670;2023-01-26T02:09:08;56.72;;;20.55;;
41711;SDS011;27399;51.516;13.670;2023-01-26T02:11:54;62.30;;;17.85;;
41711;SDS011;27399;51.516;13.670;2023-01-26T02:14:22;46.35;;;16.67;;
41711;SDS011;27399;51.516;13.670;2023-01-26T02:16:48;59.17;;;18.40;;
41711;SDS011;27399;51.516;13.670;2023-01-26T02:19:18;57.05;;;18.70;;
41711;SDS011;27399;51.516;13.670;2023-01-26T02:21:51;57.50;;;18.13;;
41711;SDS011;27399;51.516;13.670;2023-01-26T02:24:27;56.50;;;17.95;;
41711;SDS011;27399;51.516;13.670;2023-01-26T02:26:59;47.00;;;16.35;;
41711;SDS011;27399;51.516;13.670;2023-01-26T02:29:25;47.15;;;16.17;;
41711;SDS011;27399;51.516;13.670;2023-01-26T02:31:51;63.72;;;18.40;;
41711;SDS011;27399;51.516;13.670;2023-01-26T02:34:18;54.40;;;19.27;;
41711;SDS011;27399;51.516;13.670;2023-01-26T02:36:43;55.17;;;17.42;;
41711;SDS011;27399;51.516;13.670;2023-01-26T02:39:22;43.35;;;14.77;;
41711;SDS011;27399;51.516;13.670;2023-01-26T02:41:58;59.77;;;16.97;;
41711;SDS011;27399;51.516;13.670;2023-01-26T02:44:42;56.28;;;17.83;;
41711;SDS011;27399;51.516;13.670;2023-01-26T02:47:12;56.17;;;18.55;;
41711;SDS011;27399;51.516;13.670;2023-01-26T02:49:40;49.15;;;17.60;;
41711;SDS011;27399;51.516;13.670;2023-01-26T02:52:12;56.38;;;17.35;;
41711;SDS011;27399;51.516;13.670;2023-01-26T02:54:41;54.03;;;18.05;;
41711;SDS011;27399;51.516;13.670;2023-01-26T02:57:25;49.83;;;17.42;;
41711;SDS011;27399;51.516;13.670;2023-01-26T02:59:51;50.88;;;16.08;;
41711;SDS011;27399;51.516;13.670;2023-01-26T03:02:16;43.22;;;16.13;;
41711;SDS011;27399;51.516;13.670;2023-01-26T03:04:42;45.85;;;17.10;;
41711;SDS011;27399;51.516;13.670;2023-01-26T03:07:08;59.88;;;18.33;;
41711;SDS011;27399;51.516;13.670;2023-01-26T03:09:34;47.97;;;15.57;;
41711;SDS011;27399;51.516;13.670;2023-01-26T03:12:00;46.10;;;18.20;;
41711;SDS011;27399;51.516;13.670;2023-01-26T03:14:26;45.70;;;16.80;;
41711;SDS011;27399;51.516;13.670;2023-01-26T03:16:51;64.45;;;17.73;;
41711;SDS011;27399;51.516;13.670;2023-01-26T03:19:17;57.72;;;18.30;;
41711;SDS011;27399;51.516;13.670;2023-01-26T03:22:01;58.58;;;18.27;;
41711;SDS011;27399;51.516;13.670;2023-01-26T03:24:45;50.30;;;17.27;;
41711;SDS011;27399;51.516;13.670;2023-01-26T03:27:30;51.03;;;15.82;;
41711;SDS011;27399;51.516;13.670;2023-01-26T03:30:05;46.45;;;15.55;;
41711;SDS011;27399;51.516;13.670;2023-01-26T03:32:31;51.20;;;16.65;;
41711;SDS011;27399;51.516;13.670;2023-01-26T03:34:56;53.40;;;19.27;;
41711;SDS011;27399;51.516;13.670;2023-01-26T03:37:22;54.22;;;18.45;;
41711;SDS011;27399;51.516;13.670;2023-01-26T03:39:50;56.97;;;18.40;;
41711;SDS011;27399;51.516;13.670;2023-01-26T03:42:35;49.63;;;17.25;;
41711;SDS011;27399;51.516;13.670;2023-01-26T03:45:20;51.75;;;17.15;;
41711;SDS011;27399;51.516;13.670;2023-01-26T03:48:05;49.15;;;17.10;;
41711;SDS011;27399;51.516;13.670;2023-01-26T03:50:51;47.55;;;17.35;;
41711;SDS011;27399;51.516;13.670;2023-01-26T03:53:35;44.60;;;16.40;;
41711;SDS011;27399;51.516;13.670;2023-01-26T03:56:19;42.58;;;15.80;;
41711;SDS011;27399;51.516;13.670;2023-01-26T03:58:54;43.53;;;15.70;;
41711;SDS011;27399;51.516;13.670;2023-01-26T04:01:32;48.40;;;16.70;;
41711;SDS011;27399;51.516;13.670;2023-01-26T04:04:06;48.33;;;16.83;;
41711;SDS011;27399;51.516;13.670;2023-01-26T04:06:51;45.72;;;16.45;;
41711;SDS011;27399;51.516;13.670;2023-01-26T04:09:36;46.47;;;16.90;;
41711;SDS011;27399;51.516;13.670;2023-01-26T04:12:03;55.53;;;18.85;;
41711;SDS011;27399;51.516;13.670;2023-01-26T04:14:29;48.83;;;17.52;;
41711;SDS011;27399;51.516;13.670;2023-01-26T04:17:13;58.70;;;19.05;;
41711;SDS011;27399;51.516;13.670;2023-01-26T04:19:57;56.90;;;19.20;;
41711;SDS011;27399;51.516;13.670;2023-01-26T04:22:41;50.55;;;17.65;;
41711;SDS011;27399;51.516;13.670;2023-01-26T04:25:11;56.83;;;18.98;;
41711;SDS011;27399;51.516;13.670;2023-01-26T04:27:39;39.67;;;16.92;;
41711;SDS011;27399;51.516;13.670;2023-01-26T04:30:06;53.17;;;17.77;;
41711;SDS011;27399;51.516;13.670;2023-01-26T04:32:33;47.88;;;17.38;;
41711;SDS011;27399;51.516;13.670;2023-01-26T04:34:59;54.85;;;19.17;;
41711;SDS011;27399;51.516;13.670;2023-01-26T04:37:25;54.28;;;18.27;;
41711;SDS011;27399;51.516;13.670;2023-01-26T04:39:50;56.13;;;19.33;;
41711;SDS011;27399;51.516;13.670;2023-01-26T04:42:16;49.38;;;17.92;;
41711;SDS011;27399;51.516;13.670;2023-01-26T04:44:41;58.58;;;19.38;;
41711;SDS011;27399;51.516;13.670;2023-01-26T04:47:07;44.35;;;17.60;;
41711;SDS011;27399;51.516;13.670;2023-01-26T04:49:32;45.15;;;17.73;;
41711;SDS011;27399;51.516;13.670;2023-01-26T04:51:58;50.05;;;18.27;;
41711;SDS011;27399;51.516;13.670;2023-01-26T04:54:24;48.75;;;18.77;;
41711;SDS011;27399;51.516;13.670;2023-01-26T04:56:49;52.35;;;19.08;;
41711;SDS011;27399;51.516;13.670;2023-01-26T04:59:15;52.97;;;19.23;;
41711;SDS011;27399;51.516;13.670;2023-01-26T05:01:41;51.67;;;19.35;;
41711;SDS011;27399;51.516;13.670;2023-01-26T05:04:07;47.63;;;17.52;;
41711;SDS011;27399;51.516;13.670;2023-01-26T05:06:35;53.60;;;18.25;;
41711;SDS011;27399;51.516;13.670;2023-01-26T05:09:02;51.65;;;17.88;;
41711;SDS011;27399;51.516;13.670;2023-01-26T05:11:28;46.85;;;17.98;;
41711;SDS011;27399;51.516;13.670;2023-01-26T05:13:54;46.10;;;16.35;;
41711;SDS011;27399;51.516;13.670;2023-01-26T05:16:20;48.75;;;17.42;;
41711;SDS011;27399;51.516;13.670;2023-01-26T05:18:45;53.30;;;18.33;;
41711;SDS011;27399;51.516;13.670;2023-01-26T05:21:11;51.47;;;18.10;;
41711;SDS011;27399;51.516;13.670;2023-01-26T05:23:37;54.60;;;19.30;;
41711;SDS011;27399;51.516;13.670;2023-01-26T05:26:02;50.22;;;17.90;;
41711;SDS011;27399;51.516;13.670;2023-01-26T05:28:28;47.08;;;17.42;;
41711;SDS011;27399;51.516;13.670;2023-01-26T05:30:54;47.95;;;17.35;;
41711;SDS011;27399;51.516;13.670;2023-01-26T05:33:20;50.08;;;18.73;;
41711;SDS011;27399;51.516;13.670;2023-01-26T05:35:49;49.45;;;17.30;;
41711;SDS011;27399;51.516;13.670;2023-01-26T05:38:16;42.58;;;17.35;;
41711;SDS011;27399;51.516;13.670;2023-01-26T05:40:43;49.20;;;18.48;;
41711;SDS011;27399;51.516;13.670;2023-01-26T05:43:09;50.17;;;17.83;;
41711;SDS011;27399;51.516;13.670;2023-01-26T05:45:36;49.33;;;17.63;;
41711;SDS011;27399;51.516;13.670;2023-01-26T05:48:03;45.53;;;17.20;;
41711;SDS011;27399;51.516;13.670;2023-01-26T05:50:28;52.08;;;19.02;;
41711;SDS011;27399;51.516;13.670;2023-01-26T05:52:54;49.30;;;18.25;;
41711;SDS011;27399;51.516;13.670;2023-01-26T05:55:20;52.75;;;18.73;;
41711;SDS011;27399;51.516;13.670;2023-01-26T05:57:46;52.35;;;18.67;;
41711;SDS011;27399;51.516;13.670;2023-01-26T06:00:11;51.70;;;19.25;;
41711;SDS011;27399;51.516;13.670;2023-01-26T06:02:38;52.05;;;20.05;;
41711;SDS011;27399;51.516;13.670;2023-01-26T06:05:04;61.38;;;20.40;;
41711;SDS011;27399;51.516;13.670;2023-01-26T06:07:30;61.75;;;20.00;;
41711;SDS011;27399;51.516;13.670;2023-01-26T06:09:56;61.05;;;19.05;;
41711;SDS011;27399;51.516;13.670;2023-01-26T06:12:22;51.65;;;16.98;;
41711;SDS011;27399;51.516;13.670;2023-01-26T06:14:48;56.53;;;18.42;;
41711;SDS011;27399;51.516;13.670;2023-01-26T06:17:14;62.15;;;19.95;;
41711;SDS011;27399;51.516;13.670;2023-01-26T06:19:41;44.25;;;18.45;;
41711;SDS011;27399;51.516;13.670;2023-01-26T06:22:07;57.80;;;18.80;;
41711;SDS011;27399;51.516;13.670;2023-01-26T06:24:34;56.58;;;19.25;;
41711;SDS011;27399;51.516;13.670;2023-01-26T06:27:00;62.33;;;18.75;;
41711;SDS011;27399;51.516;13.670;2023-01-26T06:29:25;57.70;;;20.70;;
41711;SDS011;27399;51.516;13.670;2023-01-26T06:31:51;46.70;;;17.42;;
41711;SDS011;27399;51.516;13.670;2023-01-26T06:34:17;59.88;;;19.70;;
41711;SDS011;27399;51.516;13.670;2023-01-26T06:36:43;61.63;;;19.45;;
41711;SDS011;27399;51.516;13.670;2023-01-26T06:39:09;58.95;;;20.70;;
41711;SDS011;27399;51.516;13.670;2023-01-26T06:41:36;54.50;;;18.55;;
41711;SDS011;27399;51.516;13.670;2023-01-26T06:44:01;51.15;;;19.20;;
41711;SDS011;27399;51.516;13.670;2023-01-26T06:46:27;56.53;;;19.10;;
41711;SDS011;27399;51.516;13.670;2023-01-26T06:48:53;56.80;;;20.10;;
41711;SDS011;27399;51.516;13.670;2023-01-26T06:53:57;54.72;;;18.23;;
41711;SDS011;27399;51.516;13.670;2023-01-26T06:56:23;51.92;;;18.95;;
41711;SDS011;27399;51.516;13.670;2023-01-26T06:58:49;52.38;;;18.25;;
41711;SDS011;27399;51.516;13.670;2023-01-26T07:01:22;55.03;;;18.98;;
41711;SDS011;27399;51.516;13.670;2023-01-26T07:03:50;51.50;;;18.02;;
41711;SDS011;27399;51.516;13.670;2023-01-26T07:06:17;52.85;;;18.65;;
41711;SDS011;27399;51.516;13.670;2023-01-26T07:08:42;47.67;;;18.80;;
41711;SDS011;27399;51.516;13.670;2023-01-26T07:11:08;50.67;;;17.48;;
41711;SDS011;27399;51.516;13.670;2023-01-26T07:13:34;51.78;;;19.20;;
41711;SDS011;27399;51.516;13.670;2023-01-26T07:16:04;41.85;;;16.70;;
41711;SDS011;27399;51.516;13.670;2023-01-26T07:18:31;50.83;;;18.58;;
41711;SDS011;27399;51.516;13.670;2023-01-26T07:21:01;49.88;;;18.55;;
41711;SDS011;27399;51.516;13.670;2023-01-26T07:23:45;48.88;;;17.30;;
41711;SDS011;27399;51.516;13.670;2023-01-26T07:26:11;54.15;;;18.23;;
41711;SDS011;27399;51.516;13.670;2023-01-26T07:28:38;53.65;;;18.05;;
41711;SDS011;27399;51.516;13.670;2023-01-26T07:31:04;53.30;;;19.40;;
41711;SDS011;27399;51.516;13.670;2023-01-26T07:33:31;47.50;;;18.48;;
41711;SDS011;27399;51.516;13.670;2023-01-26T07:35:57;55.22;;;18.35;;
41711;SDS011;27399;51.516;13.670;2023-01-26T07:38:24;50.75;;;18.52;;
41711;SDS011;27399;51.516;13.670;2023-01-26T07:40:51;59.72;;;19.33;;
41711;SDS011;27399;51.516;13.670;2023-01-26T07:43:17;65.72;;;20.67;;
41711;SDS011;27399;51.516;13.670;2023-01-26T07:45:50;53.22;;;18.35;;
41711;SDS011;27399;51.516;13.670;2023-01-26T07:48:21;51.65;;;18.17;;
41711;SDS011;27399;51.516;13.670;2023-01-26T07:50:48;53.70;;;18.95;;
41711;SDS011;27399;51.516;13.670;2023-01-26T07:53:14;51.53;;;19.02;;
41711;SDS011;27399;51.516;13.670;2023-01-26T07:55:43;54.70;;;17.98;;
41711;SDS011;27399;51.516;13.670;2023-01-26T07:58:10;49.40;;;17.92;;
41711;SDS011;27399;51.516;13.670;2023-01-26T08:00:36;52.05;;;18.90;;
41711;SDS011;27399;51.516;13.670;2023-01-26T08:03:02;54.55;;;18.35;;
41711;SDS011;27399;51.516;13.670;2023-01-26T08:05:28;52.92;;;19.98;;
41711;SDS011;27399;51.516;13.670;2023-01-26T08:07:57;47.70;;;17.67;;
41711;SDS011;27399;51.516;13.670;2023-01-26T08:10:26;54.10;;;17.75;;
41711;SDS011;27399;51.516;13.670;2023-01-26T08:12:55;46.20;;;18.10;;
41711;SDS011;27399;51.516;13.670;2023-01-26T08:15:22;54.58;;;20.05;;
41711;SDS011;27399;51.516;13.670;2023-01-26T08:17:48;47.22;;;18.25;;
41711;SDS011;27399;51.516;13.670;2023-01-26T08:20:13;55.97;;;19.33;;
41711;SDS011;27399;51.516;13.670;2023-01-26T08:22:39;44.75;;;17.95;;
41711;SDS011;27399;51.516;13.670;2023-01-26T08:25:05;48.97;;;16.95;;
41711;SDS011;27399;51.516;13.670;2023-01-26T08:27:31;41.90;;;15.98;;
41711;SDS011;27399;51.516;13.670;2023-01-26T08:29:57;54.38;;;18.85;;
41711;SDS011;27399;51.516;13.670;2023-01-26T08:32:23;50.35;;;18.20;;
41711;SDS011;27399;51.516;13.670;2023-01-26T08:34:49;52.72;;;18.77;;
41711;SDS011;27399;51.516;13.670;2023-01-26T08:37:15;56.13;;;19.27;;
41711;SDS011;27399;51.516;13.670;2023-01-26T08:39:40;47.92;;;17.60;;
41711;SDS011;27399;51.516;13.670;2023-01-26T08:42:06;45.85;;;16.85;;
41711;SDS011;27399;51.516;13.670;2023-01-26T08:44:32;53.88;;;18.67;;
41711;SDS011;27399;51.516;13.670;2023-01-26T08:46:57;50.30;;;18.10;;
41711;SDS011;27399;51.516;13.670;2023-01-26T08:49:23;43.35;;;15.23;;
41711;SDS011;27399;51.516;13.670;2023-01-26T08:51:48;35.67;;;13.70;;
41711;SDS011;27399;51.516;13.670;2023-01-26T08:54:14;43.25;;;14.50;;
41711;SDS011;27399;51.516;13.670;2023-01-26T08:56:40;42.85;;;15.70;;
41711;SDS011;27399;51.516;13.670;2023-01-26T08:59:06;38.72;;;14.65;;
41711;SDS011;27399;51.516;13.670;2023-01-26T09:01:31;39.63;;;14.80;;
41711;SDS011;27399;51.516;13.670;2023-01-26T09:03:57;42.42;;;16.55;;
41711;SDS011;27399;51.516;13.670;2023-01-26T09:06:23;43.17;;;15.15;;
41711;SDS011;27399;51.516;13.670;2023-01-26T09:08:49;41.28;;;14.48;;
41711;SDS011;27399;51.516;13.670;2023-01-26T09:11:14;36.88;;;15.10;;
41711;SDS011;27399;51.516;13.670;2023-01-26T09:13:40;38.90;;;13.55;;
41711;SDS011;27399;51.516;13.670;2023-01-26T09:16:07;37.78;;;13.63;;
41711;SDS011;27399;51.516;13.670;2023-01-26T09:18:39;39.15;;;13.43;;
41711;SDS011;27399;51.516;13.670;2023-01-26T09:21:06;32.50;;;13.30;;
41711;SDS011;27399;51.516;13.670;2023-01-26T09:23:33;39.63;;;13.27;;
41711;SDS011;27399;51.516;13.670;2023-01-26T09:25:59;37.88;;;13.57;;
41711;SDS011;27399;51.516;13.670;2023-01-26T09:28:25;41.50;;;15.27;;
41711;SDS011;27399;51.516;13.670;2023-01-26T09:30:51;40.90;;;14.82;;
41711;SDS011;27399;51.516;13.670;2023-01-26T09:33:17;39.92;;;13.00;;
41711;SDS011;27399;51.516;13.670;2023-01-26T09:35:42;35.22;;;11.90;;
41711;SDS011;27399;51.516;13.670;2023-01-26T09:38:08;34.22;;;12.63;;
41711;SDS011;27399;51.516;13.670;2023-01-26T09:40:36;34.70;;;12.52;;
41711;SDS011;27399;51.516;13.670;2023-01-26T09:43:27;39.95;;;13.77;;
41711;SDS011;27399;51.516;13.670;2023-01-26T09:49:01;31.13;;;11.83;;
41711;SDS011;27399;51.516;13.670;2023-01-26T09:51:37;33.38;;;13.00;;
41711;SDS011;27399;51.516;13.670;2023-01-26T09:56:53;32.65;;;11.88;;
41711;SDS011;27399;51.516;13.670;2023-01-26T10:01:58;37.80;;;12.35;;
41711;SDS011;27399;51.516;13.670;2023-01-26T10:04:36;33.93;;;13.10;;
41711;SDS011;27399;51.516;13.670;2023-01-26T10:07:13;34.67;;;12.85;;
41711;SDS011;27399;51.516;13.670;2023-01-26T10:09:40;32.72;;;11.57;;
41711;SDS011;27399;51.516;13.670;2023-01-26T10:12:14;34.20;;;12.50;;
41711;SDS011;27399;51.516;13.670;2023-01-26T10:17:26;32.15;;;13.73;;
41711;SDS011;27399;51.516;13.670;2023-01-26T10:20:00;40.35;;;13.32;;
41711;SDS011;27399;51.516;13.670;2023-01-26T10:25:14;32.35;;;12.25;;
41711;SDS011;27399;51.516;13.670;2023-01-26T10:27:42;32.05;;;13.07;;
41711;SDS011;27399;51.516;13.670;2023-01-26T10:30:16;42.40;;;14.05;;
41711;SDS011;27399;51.516;13.670;2023-01-26T10:32:44;30.50;;;11.57;;
41711;SDS011;27399;51.516;13.670;2023-01-26T10:35:23;36.55;;;10.93;;
41711;SDS011;27399;51.516;13.670;2023-01-26T10:37:50;32.90;;;11.05;;
41711;SDS011;27399;51.516;13.670;2023-01-26T10:40:17;32.40;;;11.25;;
41711;SDS011;27399;51.516;13.670;2023-01-26T10:42:52;28.52;;;10.23;;
41711;SDS011;27399;51.516;13.670;2023-01-26T10:45:32;27.50;;;9.65;;
41711;SDS011;27399;51.516;13.670;2023-01-26T10:48:31;36.05;;;10.77;;
41711;SDS011;27399;51.516;13.670;2023-01-26T10:50:51;27.23;;;10.00;;
41711;SDS011;27399;51.516;13.670;2023-01-26T10:53:24;25.80;;;10.02;;
41711;SDS011;27399;51.516;13.670;2023-01-26T10:56:05;25.17;;;9.60;;
41711;SDS011;27399;51.516;13.670;2023-01-26T11:01:06;26.10;;;9.05;;
41711;SDS011;27399;51.516;13.670;2023-01-26T11:03:40;20.95;;;8.23;;
41711;SDS011;27399;51.516;13.670;2023-01-26T11:06:14;22.90;;;9.50;;
41711;SDS011;27399;51.516;13.670;2023-01-26T11:08:40;22.30;;;8.70;;
41711;SDS011;27399;51.516;13.670;2023-01-26T11:11:08;20.60;;;8.60;;
41711;SDS011;27399;51.516;13.670;2023-01-26T11:14:01;23.35;;;9.02;;
41711;SDS011;27399;51.516;13.670;2023-01-26T11:19:13;17.13;;;7.57;;
41711;SDS011;27399;51.516;13.670;2023-01-26T11:21:52;17.85;;;7.10;;
41711;SDS011;27399;51.516;13.670;2023-01-26T11:30:22;25.10;;;8.85;;
41711;SDS011;27399;51.516;13.670;2023-01-26T11:41:00;21.58;;;8.18;;
41711;SDS011;27399;51.516;13.670;2023-01-26T11:43:45;18.52;;;7.03;;
41711;SDS011;27399;51.516;13.670;2023-01-26T11:46:24;18.65;;;7.50;;
41711;SDS011;27399;51.516;13.670;2023-01-26T12:02:59;20.25;;;7.72;;
41711;SDS011;27399;51.516;13.670;2023-01-26T12:05:39;19.02;;;8.25;;
41711;SDS011;27399;51.516;13.670;2023-01-26T12:08:13;16.95;;;6.60;;
41711;SDS011;27399;51.516;13.670;2023-01-26T12:11:14;17.85;;;7.18;;
41711;SDS011;27399;51.516;13.670;2023-01-26T12:13:56;13.93;;;6.57;;
41711;SDS011;27399;51.516;13.670;2023-01-26T12:19:38;16.38;;;5.50;;
41711;SDS011;27399;51.516;13.670;2023-01-26T12:22:22;17.77;;;7.35;;
41711;SDS011;27399;51.516;13.670;2023-01-26T12:25:06;15.35;;;5.80;;
41711;SDS011;27399;51.516;13.670;2023-01-26T12:27:42;12.07;;;5.82;;
41711;SDS011;27399;51.516;13.670;2023-01-26T12:33:12;15.38;;;6.15;;
41711;SDS011;27399;51.516;13.670;2023-01-26T12:38:22;12.10;;;5.93;;
41711;SDS011;27399;51.516;13.670;2023-01-26T12:46:40;14.63;;;5.72;;
41711;SDS011;27399;51.516;13.670;2023-01-26T12:49:58;8.82;;;4.70;;
41711;SDS011;27399;51.516;13.670;2023-01-26T12:52:22;11.05;;;4.90;;
41711;SDS011;27399;51.516;13.670;2023-01-26T12:57:39;11.55;;;5.38;;
41711;SDS011;27399;51.516;13.670;2023-01-26T13:04:08;13.27;;;5.45;;
41711;SDS011;27399;51.516;13.670;2023-01-26T13:06:36;8.90;;;4.40;;
41711;SDS011;27399;51.516;13.670;2023-01-26T13:11:46;9.23;;;4.20;;
41711;SDS011;27399;51.516;13.670;2023-01-26T13:19:51;10.90;;;5.45;;
41711;SDS011;27399;51.516;13.670;2023-01-26T13:27:33;11.65;;;5.43;;
41711;SDS011;27399;51.516;13.670;2023-01-26T13:30:02;11.02;;;5.00;;
41711;SDS011;27399;51.516;13.670;2023-01-26T13:35:13;10.77;;;5.22;;
41711;SDS011;27399;51.516;13.670;2023-01-26T13:40:41;13.70;;;5.97;;
41711;SDS011;27399;51.516;13.670;2023-01-26T13:48:49;10.07;;;5.30;;
41711;SDS011;27399;51.516;13.670;2023-01-26T13:51:29;15.35;;;5.57;;
41711;SDS011;27399;51.516;13.670;2023-01-26T13:54:09;13.32;;;5.85;;
41711;SDS011;27399;51.516;13.670;2023-01-26T13:56:41;13.68;;;5.65;;
41711;SDS011;27399;51.516;13.670;2023-01-26T13:59:10;9.65;;;4.97;;
41711;SDS011;27399;51.516;13.670;2023-01-26T14:01:41;12.43;;;5.50;;
41711;SDS011;27399;51.516;13.670;2023-01-26T14:06:51;19.92;;;8.25;;
41711;SDS011;27399;51.516;13.670;2023-01-26T14:09:20;19.42;;;8.98;;
41711;SDS011;27399;51.516;13.670;2023-01-26T14:11:52;19.38;;;8.77;;
41711;SDS011;27399;51.516;13.670;2023-01-26T14:14:28;18.20;;;8.50;;
41711;SDS011;27399;51.516;13.670;2023-01-26T14:16:57;19.80;;;9.13;;
41711;SDS011;27399;51.516;13.670;2023-01-26T14:19:24;20.80;;;9.32;;
41711;SDS011;27399;51.516;13.670;2023-01-26T14:21:52;23.85;;;9.32;;
41711;SDS011;27399;51.516;13.670;2023-01-26T14:24:35;23.38;;;8.82;;
41711;SDS011;27399;51.516;13.670;2023-01-26T14:27:05;22.98;;;9.70;;
41711;SDS011;27399;51.516;13.670;2023-01-26T14:29:53;22.08;;;9.40;;
41711;SDS011;27399;51.516;13.670;2023-01-26T14:32:18;21.70;;;9.95;;
41711;SDS011;27399;51.516;13.670;2023-01-26T14:34:53;26.10;;;9.75;;
41711;SDS011;27399;51.516;13.670;2023-01-26T14:37:20;26.20;;;10.05;;
41711;SDS011;27399;51.516;13.670;2023-01-26T14:39:46;27.23;;;11.38;;
41711;SDS011;27399;51.516;13.670;2023-01-26T14:42:16;26.90;;;10.57;;
41711;SDS011;27399;51.516;13.670;2023-01-26T14:44:44;24.75;;;10.25;;
41711;SDS011;27399;51.516;13.670;2023-01-26T14:50:01;27.58;;;11.40;;
41711;SDS011;27399;51.516;13.670;2023-01-26T14:52:32;29.95;;;11.02;;
41711;SDS011;27399;51.516;13.670;2023-01-26T14:55:09;24.52;;;9.88;;
41711;SDS011;27399;51.516;13.670;2023-01-26T14:57:51;24.38;;;9.75;;
41711;SDS011;27399;51.516;13.670;2023-01-26T15:00:32;18.35;;;7.90;;
41711;SDS011;27399;51.516;13.670;2023-01-26T15:03:02;20.20;;;8.98;;
41711;SDS011;27399;51.516;13.670;2023-01-26T15:05:39;17.70;;;8.18;;
41711;SDS011;27399;51.516;13.670;2023-01-26T15:08:19;18.57;;;7.57;;
41711;SDS011;27399;51.516;13.670;2023-01-26T15:11:00;15.20;;;7.38;;
41711;SDS011;27399;51.516;13.670;2023-01-26T15:13:45;16.10;;;7.20;;
41711;SDS011;27399;51.516;13.670;2023-01-26T15:16:14;17.30;;;7.15;;
41711;SDS011;27399;51.516;13.670;2023-01-26T15:19:04;17.98;;;7.38;;
41711;SDS011;27399;51.516;13.670;2023-01-26T15:21:36;17.98;;;7.63;;
41711;SDS011;27399;51.516;13.670;2023-01-26T15:24:11;18.70;;;8.70;;
41711;SDS011;27399;51.516;13.670;2023-01-26T15:29:05;14.07;;;6.55;;
41711;SDS011;27399;51.516;13.670;2023-01-26T15:31:54;16.08;;;7.38;;
41711;SDS011;27399;51.516;13.670;2023-01-26T15:34:36;22.35;;;9.00;;
41711;SDS011;27399;51.516;13.670;2023-01-26T15:39:55;18.02;;;7.55;;
41711;SDS011;27399;51.516;13.670;2023-01-26T15:42:22;19.10;;;8.18;;
41711;SDS011;27399;51.516;13.670;2023-01-26T15:44:51;16.13;;;7.22;;
41711;SDS011;27399;51.516;13.670;2023-01-26T15:47:16;18.05;;;8.15;;
41711;SDS011;27399;51.516;13.670;2023-01-26T15:49:42;18.05;;;7.85;;
41711;SDS011;27399;51.516;13.670;2023-01-26T15:52:10;19.38;;;7.63;;
41711;SDS011;27399;51.516;13.670;2023-01-26T15:54:38;17.35;;;6.93;;
41711;SDS011;27399;51.516;13.670;2023-01-26T15:57:04;16.52;;;7.03;;
41711;SDS011;27399;51.516;13.670;2023-01-26T15:59:30;20.02;;;7.60;;
41711;SDS011;27399;51.516;13.670;2023-01-26T16:01:55;21.85;;;7.90;;
41711;SDS011;27399;51.516;13.670;2023-01-26T16:04:21;18.17;;;8.32;;
41711;SDS011;27399;51.516;13.670;2023-01-26T16:06:49;18.92;;;7.28;;
41711;SDS011;27399;51.516;13.670;2023-01-26T16:09:14;16.35;;;7.53;;
41711;SDS011;27399;51.516;13.670;2023-01-26T16:11:42;15.50;;;7.18;;
41711;SDS011;27399;51.516;13.670;2023-01-26T16:14:12;16.85;;;7.97;;